Terminal Aerodrome Forecast
Issued by NWS

Current Version | Previous Version | Text Only | Print | Product List | Glossary Off
Versions: 1 2 3 4 5 6 7 8 9 10 11 12 13 14

000
FTUS41 KILN 222341
TAFLCK
TAF
KLCK 222341Z 2300/2324 34008KT P6SM VCTS BKN040CB
      TEMPO 2300/2301 5SM -TSRA OVC025CB
     FM230100 34004KT P6SM SCT100
     FM230900 VRB03KT 4SM BR BKN008
     FM231300 03006KT P6SM SCT040
      AMD NOT SKED=

USA.gov is the U.S. government's official web portal to all federal, state and local government web resources and services.